Time;durP1;ratioP1;P1;durP2;ratioP2;P2;SDS_P1;SDS_P2;PMS_P1;PMS_P2;Temp;Humidity;BMP_temperature;BMP_pressure;BME280_temperature;BME280_humidity;BME280_pressure;Samples;Min_cycle;Max_cycle;Signal;HPM_P1;HPM_P2
2022/02/27 00:00:19;;;;;;;4.57;0.83;;;;;;;;;;4925096;29;20408;-83
2022/02/27 00:02:45;;;;;;;5.90;1.10;;;;;;;;;;4924720;29;20105;-83
2022/02/27 00:05:11;;;;;;;2.17;0.80;;;;;;;;;;4920274;29;20517;-83
2022/02/27 00:07:37;;;;;;;3.87;0.80;;;;;;;;;;4925595;29;20028;-83
2022/02/27 00:10:04;;;;;;;5.20;1.00;;;;;;;;;;4917716;29;20033;-83
2022/02/27 00:12:30;;;;;;;4.90;1.07;;;;;;;;;;4922587;29;20524;-82
2022/02/27 00:14:56;;;;;;;5.77;1.60;;;;;;;;;;4924536;29;20103;-83
2022/02/27 00:17:22;;;;;;;5.87;1.07;;;;;;;;;;4921455;29;20036;-82
2022/02/27 00:19:48;;;;;;;3.60;1.27;;;;;;;;;;4923653;29;20039;-82
2022/02/27 00:22:14;;;;;;;2.73;0.73;;;;;;;;;;4920706;29;20040;-83
2022/02/27 00:24:40;;;;;;;6.53;1.10;;;;;;;;;;4919129;29;20035;-83
2022/02/27 00:27:06;;;;;;;3.70;1.10;;;;;;;;;;4923122;29;21281;-83
2022/02/27 00:29:34;;;;;;;7.67;1.20;;;;;;;;;;4923908;29;20047;-82
2022/02/27 00:32:00;;;;;;;4.57;0.80;;;;;;;;;;4921187;29;20028;-82
2022/02/27 00:34:26;;;;;;;6.73;1.10;;;;;;;;;;4919543;29;20028;-83
2022/02/27 00:36:52;;;;;;;5.57;0.93;;;;;;;;;;4920575;29;20040;-83
2022/02/27 00:39:18;;;;;;;5.37;0.90;;;;;;;;;;4920564;29;20148;-83
2022/02/27 00:41:44;;;;;;;5.57;0.67;;;;;;;;;;4921140;29;20481;-83
2022/02/27 00:44:10;;;;;;;6.70;1.23;;;;;;;;;;4919972;29;20332;-83
2022/02/27 00:46:37;;;;;;;5.67;1.03;;;;;;;;;;4919501;29;20859;-83
2022/02/27 00:49:04;;;;;;;4.10;1.00;;;;;;;;;;4918521;29;20036;-83
2022/02/27 00:51:31;;;;;;;6.03;0.70;;;;;;;;;;4918226;29;20072;-83
2022/02/27 00:53:57;;;;;;;3.00;0.87;;;;;;;;;;4914266;29;20039;-82
2022/02/27 00:56:23;;;;;;;2.53;0.80;;;;;;;;;;4919615;29;20029;-83
2022/02/27 00:59:19;;;;;;;4.40;0.80;;;;;;;;;;4926370;23;20085;-82
2022/02/27 01:01:45;;;;;;;5.23;0.80;;;;;;;;;;4913993;29;20036;-82
2022/02/27 01:04:11;;;;;;;6.23;1.10;;;;;;;;;;4906303;29;20017;-82
2022/02/27 01:06:37;;;;;;;3.87;1.00;;;;;;;;;;4915705;29;20034;-81
2022/02/27 01:09:04;;;;;;;6.37;0.90;;;;;;;;;;4908814;29;20044;-83
2022/02/27 01:11:32;;;;;;;3.63;1.40;;;;;;;;;;4900908;29;20531;-81
2022/02/27 01:13:58;;;;;;;5.37;1.00;;;;;;;;;;4902430;29;20089;-82
2022/02/27 01:16:24;;;;;;;4.57;0.93;;;;;;;;;;4908422;29;20041;-82
2022/02/27 01:18:51;;;;;;;4.20;0.87;;;;;;;;;;4897480;29;20091;-82
2022/02/27 01:21:17;;;;;;;5.10;1.20;;;;;;;;;;4902696;29;20036;-83
2022/02/27 01:23:44;;;;;;;4.63;0.90;;;;;;;;;;4907093;29;20086;-83
2022/02/27 01:26:10;;;;;;;6.23;0.80;;;;;;;;;;4902629;29;20043;-81
2022/02/27 01:28:36;;;;;;;6.53;1.23;;;;;;;;;;4911011;29;20489;-82
2022/02/27 01:31:02;;;;;;;2.50;0.77;;;;;;;;;;4901495;29;20048;-82
2022/02/27 01:33:28;;;;;;;4.40;0.90;;;;;;;;;;4916608;29;20091;-83
2022/02/27 01:35:54;;;;;;;7.07;0.90;;;;;;;;;;4921850;29;20114;-82
2022/02/27 01:38:20;;;;;;;1.43;0.40;;;;;;;;;;4910334;29;20509;-83
2022/02/27 01:40:46;;;;;;;3.40;0.80;;;;;;;;;;4911263;29;20036;-82
2022/02/27 01:43:12;;;;;;;5.03;0.90;;;;;;;;;;4911972;29;20032;-82
2022/02/27 01:45:38;;;;;;;7.23;1.43;;;;;;;;;;4905439;29;20048;-81
2022/02/27 01:48:04;;;;;;;6.60;0.97;;;;;;;;;;4904920;29;20032;-83
2022/02/27 01:50:30;;;;;;;5.47;1.23;;;;;;;;;;4908830;29;20031;-83
2022/02/27 01:52:56;;;;;;;8.40;1.17;;;;;;;;;;4910151;29;20036;-82
2022/02/27 01:55:23;;;;;;;7.33;1.63;;;;;;;;;;4902774;29;20409;-82
2022/02/27 01:57:49;;;;;;;3.10;0.87;;;;;;;;;;4904777;29;20028;-83
2022/02/27 02:00:16;;;;;;;4.27;0.80;;;;;;;;;;4905436;29;20043;-83
2022/02/27 02:02:42;;;;;;;4.00;0.97;;;;;;;;;;4906546;29;20104;-82
2022/02/27 02:05:09;;;;;;;5.47;1.23;;;;;;;;;;4910158;29;20028;-81
2022/02/27 02:07:35;;;;;;;6.97;0.93;;;;;;;;;;4909304;29;20032;-82
2022/02/27 02:10:02;;;;;;;4.90;0.97;;;;;;;;;;4903339;29;20028;-82
2022/02/27 02:12:29;;;;;;;5.90;1.87;;;;;;;;;;4904855;29;20028;-83
2022/02/27 02:14:55;;;;;;;10.00;1.97;;;;;;;;;;4900974;29;20033;-83
2022/02/27 02:17:21;;;;;;;4.03;1.07;;;;;;;;;;4899159;29;20044;-80
2022/02/27 02:19:47;;;;;;;6.23;1.50;;;;;;;;;;4903178;29;20080;-82
2022/02/27 02:22:13;;;;;;;5.27;1.23;;;;;;;;;;4902717;29;20028;-83
2022/02/27 02:24:39;;;;;;;8.50;1.67;;;;;;;;;;4904738;29;20032;-83
2022/02/27 02:27:05;;;;;;;4.17;1.30;;;;;;;;;;4901274;29;20371;-82
2022/02/27 02:29:31;;;;;;;4.37;1.00;;;;;;;;;;4903229;29;20036;-82
2022/02/27 02:31:57;;;;;;;5.23;1.10;;;;;;;;;;4900313;29;20087;-83
2022/02/27 02:34:24;;;;;;;11.17;1.53;;;;;;;;;;4902072;29;20043;-83
2022/02/27 02:36:50;;;;;;;4.00;0.87;;;;;;;;;;4898644;29;20480;-82
2022/02/27 02:39:18;;;;;;;3.97;1.20;;;;;;;;;;4906537;29;20044;-83
2022/02/27 02:41:44;;;;;;;5.53;1.00;;;;;;;;;;4899953;29;20032;-82
2022/02/27 02:44:10;;;;;;;3.67;1.13;;;;;;;;;;4905511;29;20045;-81
2022/02/27 02:46:36;;;;;;;6.27;1.20;;;;;;;;;;4906768;29;20103;-82
2022/02/27 02:49:03;;;;;;;4.13;1.10;;;;;;;;;;4906709;29;20468;-82
2022/02/27 02:51:29;;;;;;;4.73;0.70;;;;;;;;;;4905479;29;20048;-82
2022/02/27 02:53:55;;;;;;;7.47;1.13;;;;;;;;;;4900672;29;20490;-83
2022/02/27 02:56:21;;;;;;;4.70;1.33;;;;;;;;;;4906446;29;20036;-83
2022/02/27 02:58:47;;;;;;;6.00;1.10;;;;;;;;;;4905344;29;20025;-82
2022/02/27 03:01:15;;;;;;;6.03;1.30;;;;;;;;;;4903664;29;20024;-83
2022/02/27 03:03:42;;;;;;;6.43;1.37;;;;;;;;;;4903254;29;20021;-83
2022/02/27 03:06:10;;;;;;;3.40;1.07;;;;;;;;;;4901407;29;20109;-83
2022/02/27 03:08:36;;;;;;;5.03;1.07;;;;;;;;;;4906205;29;20025;-83
2022/02/27 03:11:02;;;;;;;5.77;1.30;;;;;;;;;;4903622;29;20722;-82
2022/02/27 03:13:28;;;;;;;7.97;1.17;;;;;;;;;;4903071;29;20040;-82
2022/02/27 03:15:54;;;;;;;5.30;0.97;;;;;;;;;;4903215;29;20051;-83
2022/02/27 03:18:20;;;;;;;5.27;1.23;;;;;;;;;;4896060;29;20124;-83
2022/02/27 03:21:16;;;;;;;4.50;1.37;;;;;;;;;;4935551;23;20059;-84
2022/02/27 03:24:00;;;;;;;4.17;1.07;;;;;;;;;;4919192;29;20037;-84
2022/02/27 03:27:00;;;;;;;6.47;1.30;;;;;;;;;;4922986;29;20040;-85
2022/02/27 03:30:05;;;;;;;3.70;0.90;;;;;;;;;;4877489;29;20044;-84
2022/02/27 03:33:06;;;;;;;8.20;1.33;;;;;;;;;;4899500;29;20032;-86
2022/02/27 03:35:52;;;;;;;3.17;0.80;;;;;;;;;;4839460;29;20696;-85
2022/02/27 03:45:06;;;;;;;7.23;1.10;;;;;;;;;;4893292;29;20032;-86
2022/02/27 03:47:54;;;;;;;5.03;1.20;;;;;;;;;;4895156;29;20055;-86
2022/02/27 03:50:40;;;;;;;3.87;1.10;;;;;;;;;;4912830;29;20390;-86
2022/02/27 03:53:22;;;;;;;3.83;1.10;;;;;;;;;;4907070;29;20039;-85
2022/02/27 03:55:59;;;;;;;8.38;1.23;;;;;;;;;;4898614;29;20040;-85
2022/02/27 03:58:52;;;;;;;4.33;1.20;;;;;;;;;;4900141;29;20734;-85
2022/02/27 04:01:39;;;;;;;;;;;;;;;;;;;;;
2022/02/27 04:07:31;;;;;;;;;;;;;;;;;;;;;
2022/02/27 04:13:16;;;;;;;5.40;1.40;;;;;;;;;;4898570;29;20040;-86
2022/02/27 04:19:26;;;;;;;;;;;;;;;;;;;;;
2022/02/27 04:25:00;;;;;;;8.63;1.40;;;;;;;;;;4898055;29;20531;-85
2022/02/27 04:27:47;;;;;;;3.73;1.20;;;;;;;;;;4901575;29;20400;-86
2022/02/27 04:30:39;;;;;;;7.40;1.63;;;;;;;;;;4922089;23;20041;-86
2022/02/27 04:36:08;;;;;;;8.17;1.67;;;;;;;;;;4897777;29;20044;-86
2022/02/27 04:38:42;;;;;;;5.83;1.77;;;;;;;;;;4886775;29;20685;-85
2022/02/27 04:41:33;;;;;;;4.83;1.50;;;;;;;;;;4891348;29;20044;-86
2022/02/27 04:44:07;;;;;;;3.60;1.07;;;;;;;;;;4888069;29;20068;-85
2022/02/27 04:46:42;;;;;;;8.70;1.60;;;;;;;;;;4893436;29;20037;-85
2022/02/27 04:49:48;;;;;;;;;;;;;;;;;;;;;
2022/02/27 04:52:17;;;;;;;4.37;1.40;;;;;;;;;;4894806;29;20033;-86
2022/02/27 05:00:57;;;;;;;7.23;1.70;;;;;;;;;;4882693;29;20067;-84
2022/02/27 05:06:51;;;;;;;;;;;;;;;;;;;;;
2022/02/27 05:09:40;;;;;;;5.30;1.97;;;;;;;;;;4876063;29;20041;-85
2022/02/27 05:12:48;;;;;;;7.20;2.13;;;;;;;;;;4891124;29;20048;-85
2022/02/27 05:15:26;;;;;;;6.57;2.17;;;;;;;;;;4909526;29;20044;-85
2022/02/27 05:21:22;;;;;;;7.80;1.57;;;;;;;;;;4888120;29;20064;-85
2022/02/27 05:24:15;;;;;;;4.27;1.50;;;;;;;;;;4889855;29;20040;-85
2022/02/27 05:26:48;;;;;;;;;;;;;;;;;;4894378;29;20070;-85
2022/02/27 05:29:40;;;;;;;3.80;1.40;;;;;;;;;;4893948;29;20276;-86
2022/02/27 05:32:14;;;;;;;5.37;1.90;;;;;;;;;;4892560;29;20040;-85
2022/02/27 05:34:42;;;;;;;8.40;1.77;;;;;;;;;;4899934;29;20108;-85
2022/02/27 05:37:16;;;;;;;4.33;1.53;;;;;;;;;;4905839;29;20052;-85
2022/02/27 05:49:42;;;;;;;7.63;1.73;;;;;;;;;;4892269;29;20051;-86
2022/02/27 05:55:45;;;;;;;7.22;1.80;;;;;;;;;;4888555;29;20045;-84
2022/02/27 05:58:51;;;;;;;;;;;;;;;;;;;;;
2022/02/27 06:01:35;;;;;;;5.27;1.80;;;;;;;;;;4877986;29;20041;-84
2022/02/27 06:04:21;;;;;;;5.23;1.80;;;;;;;;;;4878508;29;20029;-85
2022/02/27 06:07:24;;;;;;;;;;;;;;;;;;;;;
2022/02/27 08:43:14;;;;;;;8.23;2.17;;;;;;;;;;3018991;27;20252;-86
2022/02/27 08:57:07;;;;;;;8.60;2.30;;;;;;;;;;4924520;23;20081;-86
2022/02/27 09:02:53;;;;;;;5.73;2.37;;;;;;;;;;4843293;29;20033;-86
2022/02/27 09:30:17;;;;;;;4.20;1.53;;;;;;;;;;4845070;29;20085;-87
2022/02/27 09:39:43;;;;;;;;;;;;;;;;;;;;;
2022/02/27 10:17:31;;;;;;;5.07;1.30;;;;;;;;;;4884236;29;20068;-83
2022/02/27 10:26:44;;;;;;;5.63;1.33;;;;;;;;;;4801758;29;20136;-86
2022/02/27 11:07:20;;;;;;;3.73;0.80;;;;;;;;;;4939745;23;20092;-82
2022/02/27 11:09:55;;;;;;;1.17;0.60;;;;;;;;;;4877905;29;20124;-82
2022/02/27 11:12:36;;;;;;;2.43;0.93;;;;;;;;;;4880051;29;20067;-83
2022/02/27 11:15:06;;;;;;;2.40;0.77;;;;;;;;;;4867967;29;20040;-83
2022/02/27 11:17:32;;;;;;;3.43;0.80;;;;;;;;;;4864239;29;20041;-83
2022/02/27 11:20:07;;;;;;;2.40;0.83;;;;;;;;;;4877400;29;20030;-82
2022/02/27 11:22:38;;;;;;;2.70;0.90;;;;;;;;;;4877093;29;20108;-83
2022/02/27 11:25:09;;;;;;;2.20;0.80;;;;;;;;;;4881774;29;20029;-83
2022/02/27 11:27:52;;;;;;;2.37;0.83;;;;;;;;;;4882826;29;20029;-83
2022/02/27 11:30:29;;;;;;;2.30;0.80;;;;;;;;;;4882075;29;20029;-85
2022/02/27 11:45:20;;;;;;;;;;;;;;;;;;4831125;29;20548;-86
2022/02/27 12:16:06;;;;;;;2.97;0.90;;;;;;;;;;4885155;29;20056;-86
2022/02/27 12:31:19;;;;;;;;;;;;;;;;;;;;;
2022/02/27 15:26:48;;;;;;;2.70;0.93;;;;;;;;;;4917371;29;20052;-85
2022/02/27 15:29:29;;;;;;;1.73;0.65;;;;;;;;;;4918114;29;20047;-84
2022/02/27 15:38:30;;;;;;;2.33;0.87;;;;;;;;;;4886157;29;20198;-83
2022/02/27 15:41:24;;;;;;;3.40;0.80;;;;;;;;;;4904550;29;20021;-84
2022/02/27 15:44:15;;;;;;;3.70;0.87;;;;;;;;;;4903836;29;20104;-84
2022/02/27 15:46:44;;;;;;;1.80;1.10;;;;;;;;;;4902243;29;20111;-84
2022/02/27 15:49:20;;;;;;;2.87;0.90;;;;;;;;;;4901109;29;20505;-84
2022/02/27 15:52:06;;;;;;;;;;;;;;;;;;;;;
2022/02/27 15:57:57;;;;;;;1.57;0.60;;;;;;;;;;4901004;29;20041;-84
2022/02/27 16:00:40;;;;;;;;;;;;;;;;;;;;;
2022/02/27 16:03:41;;;;;;;3.67;0.90;;;;;;;;;;4902795;29;20096;-84
2022/02/27 16:12:19;;;;;;;5.17;1.10;;;;;;;;;;4922372;23;20132;-84
2022/02/27 16:21:27;;;;;;;2.97;0.80;;;;;;;;;;4908363;29;20033;-84
2022/02/27 16:24:26;;;;;;;;;;;;;;;;;;;;;
2022/02/27 16:27:22;;;;;;;3.00;1.27;;;;;;;;;;4794402;29;20095;-84
2022/02/27 16:33:33;;;;;;;3.03;1.07;;;;;;;;;;4803009;29;20046;-85
2022/02/27 16:39:18;;;;;;;9.68;1.13;;;;;;;;;;4826388;29;20038;-84
2022/02/27 16:42:01;;;;;;;2.67;0.90;;;;;;;;;;4808519;29;20039;-84
2022/02/27 16:44:45;;;;;;;3.27;1.10;;;;;;;;;;4790791;29;20055;-83
2022/02/27 16:50:38;;;;;;;3.17;1.00;;;;;;;;;;4845348;29;20030;-84
2022/02/27 16:53:10;;;;;;;2.83;1.27;;;;;;;;;;4837099;29;20132;-84
2022/02/27 16:58:45;;;;;;;2.20;1.10;;;;;;;;;;4913993;29;19965;-84
2022/02/27 17:04:25;;;;;;;2.33;1.10;;;;;;;;;;4898906;29;20043;-83
2022/02/27 17:07:33;;;;;;;2.13;0.93;;;;;;;;;;4906404;29;20044;-83
2022/02/27 17:13:38;;;;;;;2.33;1.00;;;;;;;;;;4791577;29;20046;-84
2022/02/27 17:19:26;;;;;;;5.60;1.37;;;;;;;;;;4842121;29;20483;-84
2022/02/27 17:22:25;;;;;;;3.23;1.20;;;;;;;;;;4841832;29;20041;-83
2022/02/27 17:25:07;;;;;;;;;;;;;;;;;;;;;
2022/02/27 17:27:39;;;;;;;;;;;;;;;;;;4839159;29;20187;-84
2022/02/27 17:30:36;;;;;;;2.73;0.87;;;;;;;;;;4896073;29;19938;-83
2022/02/27 17:33:17;;;;;;;3.83;1.60;;;;;;;;;;4903429;29;20072;-83
2022/02/27 17:36:36;;;;;;;;;;;;;;;;;;;;;
2022/02/27 17:38:58;;;;;;;7.27;2.00;;;;;;;;;;4895708;29;20032;-83
2022/02/27 17:41:45;;;;;;;3.43;1.53;;;;;;;;;;4913603;29;20041;-83
2022/02/27 17:44:44;;;;;;;3.80;1.40;;;;;;;;;;4891263;29;20147;-83
2022/02/27 17:50:44;;;;;;;5.67;2.40;;;;;;;;;;4909870;29;20032;-82
2022/02/27 17:53:17;;;;;;;5.03;1.93;;;;;;;;;;4916797;29;20032;-83
2022/02/27 17:55:47;;;;;;;5.80;1.97;;;;;;;;;;4916069;29;20032;-83
2022/02/27 17:58:19;;;;;;;5.67;1.83;;;;;;;;;;4915985;29;20028;-83
2022/02/27 18:00:55;;;;;;;;;;;;;;;;;;4918540;29;20028;-83
2022/02/27 18:03:21;;;;;;;4.20;1.60;;;;;;;;;;4918236;29;19911;-84
2022/02/27 18:05:51;;;;;;;5.50;2.00;;;;;;;;;;4913576;29;20040;-84
2022/02/27 18:11:36;;;;;;;4.47;2.03;;;;;;;;;;4895630;29;20036;-83
2022/02/27 18:26:13;;;;;;;4.55;1.67;;;;;;;;;;4854866;29;20171;-84
2022/02/27 18:29:13;;;;;;;6.07;2.10;;;;;;;;;;4842180;29;20112;-84
2022/02/27 18:41:43;;;;;;;5.40;2.30;;;;;;;;;;4904495;29;20031;-83
2022/02/27 18:44:49;;;;;;;6.30;2.43;;;;;;;;;;4902422;29;20052;-84
2022/02/27 18:53:49;;;;;;;5.50;1.73;;;;;;;;;;4868876;29;20029;-84
2022/02/27 19:12:12;;;;;;;4.57;1.80;;;;;;;;;;5006569;23;20083;-83
2022/02/27 19:15:14;;;;;;;4.73;2.13;;;;;;;;;;4907677;29;20078;-82
2022/02/27 19:18:21;;;;;;;4.83;1.50;;;;;;;;;;4904737;29;20100;-82
2022/02/27 19:24:40;;;;;;;6.50;1.80;;;;;;;;;;4732635;30;20044;-83
2022/02/27 19:36:52;;;;;;;;;;;;;;;;;;;;;
2022/02/27 19:42:20;;;;;;;;;;;;;;;;;;;;;
2022/02/27 19:48:33;;;;;;;;;;;;;;;;;;;;;
2022/02/27 20:38:51;;;;;;;5.00;2.20;;;;;;;;;;4938635;23;20056;-84
2022/02/27 20:41:48;;;;;;;6.80;2.30;;;;;;;;;;4925618;29;20446;-86
2022/02/27 20:47:59;;;;;;;5.87;2.40;;;;;;;;;;4908234;29;20055;-85
2022/02/27 21:00:41;;;;;;;5.87;2.53;;;;;;;;;;4921700;23;20095;-86
2022/02/27 21:03:13;;;;;;;6.23;2.43;;;;;;;;;;4890838;29;20045;-85
2022/02/27 21:05:42;;;;;;;9.47;3.23;;;;;;;;;;4872605;29;20036;-84
2022/02/27 21:08:22;;;;;;;7.57;2.90;;;;;;;;;;4867795;29;20336;-82
2022/02/27 21:11:06;;;;;;;6.77;2.77;;;;;;;;;;4870761;29;20121;-82
2022/02/27 21:13:48;;;;;;;5.57;2.30;;;;;;;;;;4850444;29;20025;-83
2022/02/27 21:16:32;;;;;;;5.43;2.55;;;;;;;;;;4876300;29;20131;-83
2022/02/27 21:19:14;;;;;;;;;;;;;;;;;;;;;
2022/02/27 21:21:44;;;;;;;5.60;2.50;;;;;;;;;;4900427;29;20028;-83
2022/02/27 21:24:12;;;;;;;4.60;2.00;;;;;;;;;;4905334;29;20043;-83
2022/02/27 21:27:09;;;;;;;6.47;2.47;;;;;;;;;;4906776;29;20036;-83
2022/02/27 21:30:20;;;;;;;4.97;2.50;;;;;;;;;;4906432;29;20051;-83
2022/02/27 21:33:05;;;;;;;6.93;2.50;;;;;;;;;;4895037;29;20036;-83
2022/02/27 21:59:27;;;;;;;7.57;2.97;;;;;;;;;;4895634;29;20052;-85
2022/02/27 22:08:56;;;;;;;8.27;3.13;;;;;;;;;;4874608;29;20612;-86
2022/02/27 22:15:08;;;;;;;5.07;2.20;;;;;;;;;;4814272;29;20066;-87
2022/02/27 22:18:03;;;;;;;5.83;2.30;;;;;;;;;;4876665;29;20045;-86
2022/02/27 22:24:34;;;;;;;;;;;;;;;;;;;;;
2022/02/27 22:27:39;;;;;;;7.50;2.83;;;;;;;;;;4872062;29;20080;-85
2022/02/27 22:43:40;;;;;;;;;;;;;;;;;;;;;
2022/02/27 22:53:09;;;;;;;4.70;2.20;;;;;;;;;;4861712;29;20033;-86
2022/02/27 22:56:35;;;;;;;;;;;;;;;;;;;;;
2022/02/27 22:59:36;;;;;;;;;;;;;;;;;;;;;
2022/02/27 23:09:26;;;;;;;8.83;2.77;;;;;;;;;;4751528;30;20080;-86
2022/02/27 23:25:12;;;;;;;6.90;2.47;;;;;;;;;;4759737;30;20026;-86
2022/02/27 23:40:38;;;;;;;;;;;;;;;;;;;;;
